sensor_id;sensor_type;location;lat;lon;timestamp;P1;durP1;ratioP1;P2;durP2;ratioP2
57029;SDS011;42920;45.306;20.448;2023-02-17T00:02:48;130.63;;;67.38;;
57029;SDS011;42920;45.306;20.448;2023-02-17T00:07:39;122.80;;;64.32;;
57029;SDS011;42920;45.306;20.448;2023-02-17T00:12:31;134.23;;;70.65;;
57029;SDS011;42920;45.306;20.448;2023-02-17T00:17:23;137.05;;;71.38;;
57029;SDS011;42920;45.306;20.448;2023-02-17T00:22:14;136.27;;;73.25;;
57029;SDS011;42920;45.306;20.448;2023-02-17T00:27:05;141.32;;;73.75;;
57029;SDS011;42920;45.306;20.448;2023-02-17T00:31:57;92.70;;;49.13;;
57029;SDS011;42920;45.306;20.448;2023-02-17T00:36:49;136.55;;;71.70;;
57029;SDS011;42920;45.306;20.448;2023-02-17T00:41:41;132.77;;;67.88;;
57029;SDS011;42920;45.306;20.448;2023-02-17T00:44:11;137.02;;;68.97;;
57029;SDS011;42920;45.306;20.448;2023-02-17T00:46:41;112.03;;;56.25;;
57029;SDS011;42920;45.306;20.448;2023-02-17T00:51:32;105.93;;;54.55;;
57029;SDS011;42920;45.306;20.448;2023-02-17T00:56:23;103.53;;;53.05;;
57029;SDS011;42920;45.306;20.448;2023-02-17T01:01:15;94.38;;;47.40;;
57029;SDS011;42920;45.306;20.448;2023-02-17T01:06:07;106.63;;;51.17;;
57029;SDS011;42920;45.306;20.448;2023-02-17T01:08:34;94.65;;;49.30;;
57029;SDS011;42920;45.306;20.448;2023-02-17T01:13:26;105.45;;;51.92;;
57029;SDS011;42920;45.306;20.448;2023-02-17T01:18:19;114.72;;;58.30;;
57029;SDS011;42920;45.306;20.448;2023-02-17T01:20:46;113.60;;;57.78;;
57029;SDS011;42920;45.306;20.448;2023-02-17T01:25:38;105.15;;;55.60;;
57029;SDS011;42920;45.306;20.448;2023-02-17T01:28:08;114.32;;;57.10;;
57029;SDS011;42920;45.306;20.448;2023-02-17T01:30:35;104.22;;;55.60;;
57029;SDS011;42920;45.306;20.448;2023-02-17T01:35:26;114.32;;;60.67;;
57029;SDS011;42920;45.306;20.448;2023-02-17T01:40:18;112.63;;;55.97;;
57029;SDS011;42920;45.306;20.448;2023-02-17T01:47:45;114.03;;;61.03;;
57029;SDS011;42920;45.306;20.448;2023-02-17T01:50:22;123.22;;;60.03;;
57029;SDS011;42920;45.306;20.448;2023-02-17T01:52:52;114.25;;;58.17;;
57029;SDS011;42920;45.306;20.448;2023-02-17T01:55:19;149.10;;;70.68;;
57029;SDS011;42920;45.306;20.448;2023-02-17T01:57:48;119.90;;;60.22;;
57029;SDS011;42920;45.306;20.448;2023-02-17T02:00:15;121.10;;;63.58;;
57029;SDS011;42920;45.306;20.448;2023-02-17T02:02:44;120.40;;;64.00;;
57029;SDS011;42920;45.306;20.448;2023-02-17T02:05:13;121.10;;;63.78;;
57029;SDS011;42920;45.306;20.448;2023-02-17T02:07:40;115.78;;;56.65;;
57029;SDS011;42920;45.306;20.448;2023-02-17T02:10:10;119.75;;;61.83;;
57029;SDS011;42920;45.306;20.448;2023-02-17T02:12:38;126.82;;;63.83;;
57029;SDS011;42920;45.306;20.448;2023-02-17T02:15:09;124.93;;;62.88;;
57029;SDS011;42920;45.306;20.448;2023-02-17T02:23:32;131.70;;;67.28;;
57029;SDS011;42920;45.306;20.448;2023-02-17T02:34:24;128.52;;;65.60;;
57029;SDS011;42920;45.306;20.448;2023-02-17T02:36:59;126.10;;;65.53;;
57029;SDS011;42920;45.306;20.448;2023-02-17T02:39:48;143.85;;;70.78;;
57029;SDS011;42920;45.306;20.448;2023-02-17T02:42:17;135.80;;;69.60;;
57029;SDS011;42920;45.306;20.448;2023-02-17T02:44:46;139.20;;;70.22;;
57029;SDS011;42920;45.306;20.448;2023-02-17T02:50:08;139.88;;;71.78;;
57029;SDS011;42920;45.306;20.448;2023-02-17T02:55:40;127.28;;;66.13;;
57029;SDS011;42920;45.306;20.448;2023-02-17T03:06:52;125.00;;;66.88;;
57029;SDS011;42920;45.306;20.448;2023-02-17T03:09:45;119.50;;;61.17;;
57029;SDS011;42920;45.306;20.448;2023-02-17T03:12:21;125.10;;;65.30;;
57029;SDS011;42920;45.306;20.448;2023-02-17T03:14:49;122.35;;;62.45;;
57029;SDS011;42920;45.306;20.448;2023-02-17T03:17:18;128.93;;;64.85;;
57029;SDS011;42920;45.306;20.448;2023-02-17T03:22:19;125.20;;;63.17;;
57029;SDS011;42920;45.306;20.448;2023-02-17T03:24:56;125.45;;;60.70;;
57029;SDS011;42920;45.306;20.448;2023-02-17T03:27:24;131.68;;;64.03;;
57029;SDS011;42920;45.306;20.448;2023-02-17T03:32:15;117.38;;;57.63;;
57029;SDS011;42920;45.306;20.448;2023-02-17T03:37:06;113.25;;;57.90;;
57029;SDS011;42920;45.306;20.448;2023-02-17T03:41:57;121.18;;;61.47;;
57029;SDS011;42920;45.306;20.448;2023-02-17T03:46:49;121.22;;;63.42;;
57029;SDS011;42920;45.306;20.448;2023-02-17T03:51:40;124.35;;;62.03;;
57029;SDS011;42920;45.306;20.448;2023-02-17T03:56:31;136.52;;;67.57;;
57029;SDS011;42920;45.306;20.448;2023-02-17T04:01:22;141.07;;;68.75;;
57029;SDS011;42920;45.306;20.448;2023-02-17T04:06:14;128.32;;;63.47;;
57029;SDS011;42920;45.306;20.448;2023-02-17T04:11:07;123.80;;;61.70;;
57029;SDS011;42920;45.306;20.448;2023-02-17T04:13:33;122.63;;;67.43;;
57029;SDS011;42920;45.306;20.448;2023-02-17T04:16:00;131.30;;;68.38;;
57029;SDS011;42920;45.306;20.448;2023-02-17T04:18:28;122.38;;;64.70;;
57029;SDS011;42920;45.306;20.448;2023-02-17T04:20:55;130.35;;;67.60;;
57029;SDS011;42920;45.306;20.448;2023-02-17T04:25:47;110.73;;;60.03;;
57029;SDS011;42920;45.306;20.448;2023-02-17T04:28:14;127.18;;;66.75;;
57029;SDS011;42920;45.306;20.448;2023-02-17T04:30:43;130.20;;;67.20;;
57029;SDS011;42920;45.306;20.448;2023-02-17T04:33:11;131.50;;;66.95;;
57029;SDS011;42920;45.306;20.448;2023-02-17T04:38:03;125.38;;;63.88;;
57029;SDS011;42920;45.306;20.448;2023-02-17T04:40:29;137.15;;;64.13;;
57029;SDS011;42920;45.306;20.448;2023-02-17T04:45:21;122.30;;;64.63;;
57029;SDS011;42920;45.306;20.448;2023-02-17T04:47:47;123.88;;;65.43;;
57029;SDS011;42920;45.306;20.448;2023-02-17T04:52:39;120.47;;;63.72;;
57029;SDS011;42920;45.306;20.448;2023-02-17T04:57:30;121.82;;;64.32;;
57029;SDS011;42920;45.306;20.448;2023-02-17T05:02:22;114.05;;;59.17;;
57029;SDS011;42920;45.306;20.448;2023-02-17T05:04:50;133.18;;;68.82;;
57029;SDS011;42920;45.306;20.448;2023-02-17T05:07:17;123.80;;;64.80;;
57029;SDS011;42920;45.306;20.448;2023-02-17T05:09:43;122.55;;;65.85;;
57029;SDS011;42920;45.306;20.448;2023-02-17T05:14:34;113.05;;;61.13;;
57029;SDS011;42920;45.306;20.448;2023-02-17T05:19:25;135.35;;;67.93;;
57029;SDS011;42920;45.306;20.448;2023-02-17T05:24:17;126.43;;;65.00;;
57029;SDS011;42920;45.306;20.448;2023-02-17T05:29:08;156.70;;;76.07;;
57029;SDS011;42920;45.306;20.448;2023-02-17T05:33:59;125.63;;;62.60;;
57029;SDS011;42920;45.306;20.448;2023-02-17T05:38:50;128.63;;;63.08;;
57029;SDS011;42920;45.306;20.448;2023-02-17T05:43:43;129.90;;;63.35;;
57029;SDS011;42920;45.306;20.448;2023-02-17T05:46:09;207.80;;;116.82;;
57029;SDS011;42920;45.306;20.448;2023-02-17T05:51:01;147.45;;;75.20;;
57029;SDS011;42920;45.306;20.448;2023-02-17T05:55:52;137.07;;;70.32;;
57029;SDS011;42920;45.306;20.448;2023-02-17T06:00:43;134.90;;;67.90;;
57029;SDS011;42920;45.306;20.448;2023-02-17T06:03:10;149.73;;;71.45;;
57029;SDS011;42920;45.306;20.448;2023-02-17T06:05:36;140.80;;;70.00;;
57029;SDS011;42920;45.306;20.448;2023-02-17T06:10:28;128.05;;;67.03;;
57029;SDS011;42920;45.306;20.448;2023-02-17T06:15:19;138.93;;;68.47;;
57029;SDS011;42920;45.306;20.448;2023-02-17T06:20:11;140.70;;;73.75;;
57029;SDS011;42920;45.306;20.448;2023-02-17T06:22:37;165.40;;;82.30;;
57029;SDS011;42920;45.306;20.448;2023-02-17T06:27:28;140.50;;;71.30;;
57029;SDS011;42920;45.306;20.448;2023-02-17T06:32:19;141.73;;;70.80;;
57029;SDS011;42920;45.306;20.448;2023-02-17T06:37:11;169.98;;;90.30;;
57029;SDS011;42920;45.306;20.448;2023-02-17T06:42:02;205.73;;;109.30;;
57029;SDS011;42920;45.306;20.448;2023-02-17T06:46:53;187.68;;;96.55;;
57029;SDS011;42920;45.306;20.448;2023-02-17T06:51:44;171.02;;;86.10;;
57029;SDS011;42920;45.306;20.448;2023-02-17T06:56:36;157.45;;;82.57;;
57029;SDS011;42920;45.306;20.448;2023-02-17T07:01:27;195.65;;;102.05;;
57029;SDS011;42920;45.306;20.448;2023-02-17T07:06:19;204.82;;;108.15;;
57029;SDS011;42920;45.306;20.448;2023-02-17T07:08:45;163.75;;;88.75;;
57029;SDS011;42920;45.306;20.448;2023-02-17T07:13:37;137.00;;;75.47;;
57029;SDS011;42920;45.306;20.448;2023-02-17T07:16:05;132.57;;;72.78;;
57029;SDS011;42920;45.306;20.448;2023-02-17T07:18:31;136.00;;;73.53;;
57029;SDS011;42920;45.306;20.448;2023-02-17T07:23:22;139.13;;;73.93;;
57029;SDS011;42920;45.306;20.448;2023-02-17T07:28:14;140.48;;;76.25;;
57029;SDS011;42920;45.306;20.448;2023-02-17T07:33:06;138.75;;;75.47;;
57029;SDS011;42920;45.306;20.448;2023-02-17T07:37:58;134.07;;;73.88;;
57029;SDS011;42920;45.306;20.448;2023-02-17T07:40:25;138.13;;;73.43;;
57029;SDS011;42920;45.306;20.448;2023-02-17T07:42:52;138.30;;;75.10;;
57029;SDS011;42920;45.306;20.448;2023-02-17T07:45:18;141.05;;;78.53;;
57029;SDS011;42920;45.306;20.448;2023-02-17T07:50:10;153.40;;;83.20;;
57029;SDS011;42920;45.306;20.448;2023-02-17T07:55:01;152.20;;;81.13;;
57029;SDS011;42920;45.306;20.448;2023-02-17T07:57:27;146.57;;;84.43;;
57029;SDS011;42920;45.306;20.448;2023-02-17T07:59:54;152.75;;;83.30;;
57029;SDS011;42920;45.306;20.448;2023-02-17T08:04:45;151.57;;;83.75;;
57029;SDS011;42920;45.306;20.448;2023-02-17T08:09:37;150.85;;;82.95;;
57029;SDS011;42920;45.306;20.448;2023-02-17T08:12:21;143.13;;;78.50;;
57029;SDS011;42920;45.306;20.448;2023-02-17T08:15:07;144.80;;;82.45;;
57029;SDS011;42920;45.306;20.448;2023-02-17T08:17:33;141.70;;;81.60;;
57029;SDS011;42920;45.306;20.448;2023-02-17T08:22:25;140.32;;;80.35;;
57029;SDS011;42920;45.306;20.448;2023-02-17T08:24:52;139.88;;;83.05;;
57029;SDS011;42920;45.306;20.448;2023-02-17T08:29:43;137.23;;;81.43;;
57029;SDS011;42920;45.306;20.448;2023-02-17T08:32:10;131.13;;;78.00;;
57029;SDS011;42920;45.306;20.448;2023-02-17T08:34:37;136.68;;;79.05;;
57029;SDS011;42920;45.306;20.448;2023-02-17T08:39:29;131.82;;;71.90;;
57029;SDS011;42920;45.306;20.448;2023-02-17T08:41:56;134.52;;;74.65;;
57029;SDS011;42920;45.306;20.448;2023-02-17T08:44:21;128.20;;;75.15;;
57029;SDS011;42920;45.306;20.448;2023-02-17T08:49:14;102.65;;;57.78;;
57029;SDS011;42920;45.306;20.448;2023-02-17T08:51:41;130.80;;;76.85;;
57029;SDS011;42920;45.306;20.448;2023-02-17T08:54:08;123.93;;;70.00;;
57029;SDS011;42920;45.306;20.448;2023-02-17T08:56:35;131.23;;;78.97;;
57029;SDS011;42920;45.306;20.448;2023-02-17T08:59:02;124.45;;;74.80;;
57029;SDS011;42920;45.306;20.448;2023-02-17T09:01:29;127.75;;;74.20;;
57029;SDS011;42920;45.306;20.448;2023-02-17T09:03:56;123.40;;;73.43;;
57029;SDS011;42920;45.306;20.448;2023-02-17T09:06:23;124.20;;;72.55;;
57029;SDS011;42920;45.306;20.448;2023-02-17T09:08:55;122.68;;;69.13;;
57029;SDS011;42920;45.306;20.448;2023-02-17T09:11:20;126.55;;;71.75;;
57029;SDS011;42920;45.306;20.448;2023-02-17T09:16:12;106.75;;;60.55;;
57029;SDS011;42920;45.306;20.448;2023-02-17T09:21:04;85.72;;;49.17;;
57029;SDS011;42920;45.306;20.448;2023-02-17T09:23:34;84.45;;;48.47;;
57029;SDS011;42920;45.306;20.448;2023-02-17T09:26:01;75.97;;;46.50;;
57029;SDS011;42920;45.306;20.448;2023-02-17T09:28:33;78.82;;;47.45;;
57029;SDS011;42920;45.306;20.448;2023-02-17T09:31:13;77.13;;;48.53;;
57029;SDS011;42920;45.306;20.448;2023-02-17T09:33:44;71.35;;;45.38;;
57029;SDS011;42920;45.306;20.448;2023-02-17T09:36:13;77.75;;;45.40;;
57029;SDS011;42920;45.306;20.448;2023-02-17T09:38:41;84.65;;;48.05;;
57029;SDS011;42920;45.306;20.448;2023-02-17T09:41:15;83.70;;;44.70;;
57029;SDS011;42920;45.306;20.448;2023-02-17T09:43:59;73.38;;;46.08;;
57029;SDS011;42920;45.306;20.448;2023-02-17T09:46:26;82.95;;;48.70;;
57029;SDS011;42920;45.306;20.448;2023-02-17T09:48:55;77.57;;;46.20;;
57029;SDS011;42920;45.306;20.448;2023-02-17T09:54:20;46.83;;;27.25;;
57029;SDS011;42920;45.306;20.448;2023-02-17T09:56:52;45.55;;;28.23;;
57029;SDS011;42920;45.306;20.448;2023-02-17T10:01:44;46.55;;;28.20;;
57029;SDS011;42920;45.306;20.448;2023-02-17T10:04:13;40.65;;;26.55;;
57029;SDS011;42920;45.306;20.448;2023-02-17T10:09:54;40.40;;;23.88;;
57029;SDS011;42920;45.306;20.448;2023-02-17T10:12:35;36.90;;;24.23;;
57029;SDS011;42920;45.306;20.448;2023-02-17T10:15:12;38.92;;;23.88;;
57029;SDS011;42920;45.306;20.448;2023-02-17T10:17:50;34.63;;;22.50;;
57029;SDS011;42920;45.306;20.448;2023-02-17T10:20:22;38.38;;;23.52;;
57029;SDS011;42920;45.306;20.448;2023-02-17T10:31:14;32.97;;;22.30;;
57029;SDS011;42920;45.306;20.448;2023-02-17T10:34:01;37.63;;;23.48;;
57029;SDS011;42920;45.306;20.448;2023-02-17T10:36:56;32.92;;;20.95;;
57029;SDS011;42920;45.306;20.448;2023-02-17T10:42:20;32.10;;;20.23;;
57029;SDS011;42920;45.306;20.448;2023-02-17T10:44:49;33.25;;;20.45;;
57029;SDS011;42920;45.306;20.448;2023-02-17T10:47:18;29.92;;;19.75;;
57029;SDS011;42920;45.306;20.448;2023-02-17T10:49:48;30.83;;;19.50;;
57029;SDS011;42920;45.306;20.448;2023-02-17T10:52:19;30.05;;;18.67;;
57029;SDS011;42920;45.306;20.448;2023-02-17T10:54:57;28.25;;;17.10;;
57029;SDS011;42920;45.306;20.448;2023-02-17T10:57:29;31.00;;;20.65;;
57029;SDS011;42920;45.306;20.448;2023-02-17T11:00:00;26.13;;;17.52;;
57029;SDS011;42920;45.306;20.448;2023-02-17T11:02:33;26.90;;;16.23;;
57029;SDS011;42920;45.306;20.448;2023-02-17T11:07:32;27.65;;;16.77;;
57029;SDS011;42920;45.306;20.448;2023-02-17T11:10:01;24.10;;;16.45;;
57029;SDS011;42920;45.306;20.448;2023-02-17T11:12:33;27.25;;;16.05;;
57029;SDS011;42920;45.306;20.448;2023-02-17T11:15:07;26.42;;;16.02;;
57029;SDS011;42920;45.306;20.448;2023-02-17T11:17:41;25.42;;;16.00;;
57029;SDS011;42920;45.306;20.448;2023-02-17T11:20:26;19.65;;;14.88;;
57029;SDS011;42920;45.306;20.448;2023-02-17T11:25:53;20.77;;;13.57;;
57029;SDS011;42920;45.306;20.448;2023-02-17T11:28:39;18.58;;;12.98;;
57029;SDS011;42920;45.306;20.448;2023-02-17T11:31:05;18.10;;;12.50;;
57029;SDS011;42920;45.306;20.448;2023-02-17T11:33:35;19.83;;;12.40;;
57029;SDS011;42920;45.306;20.448;2023-02-17T11:36:02;20.67;;;12.68;;
57029;SDS011;42920;45.306;20.448;2023-02-17T11:38:48;21.42;;;13.15;;
57029;SDS011;42920;45.306;20.448;2023-02-17T11:41:14;17.88;;;12.80;;
57029;SDS011;42920;45.306;20.448;2023-02-17T11:44:02;21.77;;;12.82;;
57029;SDS011;42920;45.306;20.448;2023-02-17T11:46:32;19.05;;;12.30;;
57029;SDS011;42920;45.306;20.448;2023-02-17T11:52:19;40.85;;;24.48;;
57029;SDS011;42920;45.306;20.448;2023-02-17T12:00:12;28.30;;;18.80;;
57029;SDS011;42920;45.306;20.448;2023-02-17T12:07:45;38.05;;;26.20;;
57029;SDS011;42920;45.306;20.448;2023-02-17T12:16:13;34.42;;;23.60;;
57029;SDS011;42920;45.306;20.448;2023-02-17T12:21:15;49.65;;;32.58;;
57029;SDS011;42920;45.306;20.448;2023-02-17T12:34:43;34.50;;;26.10;;
57029;SDS011;42920;45.306;20.448;2023-02-17T12:37:22;34.70;;;24.45;;
57029;SDS011;42920;45.306;20.448;2023-02-17T12:40:01;36.55;;;24.27;;
57029;SDS011;42920;45.306;20.448;2023-02-17T12:42:40;49.88;;;33.55;;
57029;SDS011;42920;45.306;20.448;2023-02-17T12:45:18;38.35;;;21.75;;
57029;SDS011;42920;45.306;20.448;2023-02-17T12:48:00;33.72;;;21.80;;
57029;SDS011;42920;45.306;20.448;2023-02-17T12:50:37;29.15;;;19.23;;
57029;SDS011;42920;45.306;20.448;2023-02-17T12:53:16;28.88;;;19.80;;
57029;SDS011;42920;45.306;20.448;2023-02-17T12:55:54;33.45;;;19.70;;
57029;SDS011;42920;45.306;20.448;2023-02-17T12:58:27;23.60;;;15.15;;
57029;SDS011;42920;45.306;20.448;2023-02-17T13:00:55;20.55;;;12.75;;
57029;SDS011;42920;45.306;20.448;2023-02-17T13:03:47;18.45;;;12.77;;
57029;SDS011;42920;45.306;20.448;2023-02-17T13:12:09;15.77;;;10.93;;
57029;SDS011;42920;45.306;20.448;2023-02-17T13:17:05;16.92;;;11.63;;
57029;SDS011;42920;45.306;20.448;2023-02-17T13:19:33;17.55;;;11.25;;
57029;SDS011;42920;45.306;20.448;2023-02-17T13:21:59;16.15;;;10.63;;
57029;SDS011;42920;45.306;20.448;2023-02-17T13:24:36;17.85;;;10.63;;
57029;SDS011;42920;45.306;20.448;2023-02-17T13:29:37;18.95;;;13.02;;
57029;SDS011;42920;45.306;20.448;2023-02-17T13:32:04;17.00;;;11.07;;
57029;SDS011;42920;45.306;20.448;2023-02-17T13:40:24;17.90;;;11.73;;
57029;SDS011;42920;45.306;20.448;2023-02-17T13:42:55;16.80;;;11.23;;
57029;SDS011;42920;45.306;20.448;2023-02-17T13:45:29;20.90;;;11.02;;
57029;SDS011;42920;45.306;20.448;2023-02-17T13:50:45;22.35;;;13.48;;
57029;SDS011;42920;45.306;20.448;2023-02-17T13:56:22;21.42;;;12.20;;
57029;SDS011;42920;45.306;20.448;2023-02-17T13:58:50;21.27;;;12.10;;
57029;SDS011;42920;45.306;20.448;2023-02-17T14:01:17;19.98;;;13.02;;
57029;SDS011;42920;45.306;20.448;2023-02-17T14:03:50;19.55;;;12.18;;
57029;SDS011;42920;45.306;20.448;2023-02-17T14:08:46;16.98;;;11.15;;
57029;SDS011;42920;45.306;20.448;2023-02-17T14:11:14;17.05;;;11.43;;
57029;SDS011;42920;45.306;20.448;2023-02-17T14:13:47;18.95;;;10.52;;
57029;SDS011;42920;45.306;20.448;2023-02-17T14:16:25;19.23;;;12.20;;
57029;SDS011;42920;45.306;20.448;2023-02-17T14:21:43;18.13;;;11.20;;
57029;SDS011;42920;45.306;20.448;2023-02-17T14:24:38;22.35;;;12.63;;
57029;SDS011;42920;45.306;20.448;2023-02-17T14:27:04;22.85;;;12.40;;
57029;SDS011;42920;45.306;20.448;2023-02-17T14:37:38;24.27;;;15.05;;
57029;SDS011;42920;45.306;20.448;2023-02-17T14:40:08;26.05;;;15.00;;
57029;SDS011;42920;45.306;20.448;2023-02-17T14:42:43;25.02;;;15.20;;
57029;SDS011;42920;45.306;20.448;2023-02-17T14:45:09;29.83;;;14.85;;
57029;SDS011;42920;45.306;20.448;2023-02-17T14:47:35;24.27;;;15.88;;
57029;SDS011;42920;45.306;20.448;2023-02-17T14:50:01;24.40;;;14.30;;
57029;SDS011;42920;45.306;20.448;2023-02-17T14:52:27;25.55;;;16.52;;
57029;SDS011;42920;45.306;20.448;2023-02-17T14:54:53;27.02;;;16.70;;
57029;SDS011;42920;45.306;20.448;2023-02-17T14:57:21;28.23;;;16.73;;
57029;SDS011;42920;45.306;20.448;2023-02-17T14:59:50;30.33;;;16.35;;
57029;SDS011;42920;45.306;20.448;2023-02-17T15:02:21;32.42;;;17.17;;
57029;SDS011;42920;45.306;20.448;2023-02-17T15:04:48;26.15;;;15.43;;
57029;SDS011;42920;45.306;20.448;2023-02-17T15:07:17;28.40;;;17.85;;
57029;SDS011;42920;45.306;20.448;2023-02-17T15:09:43;31.30;;;16.35;;
57029;SDS011;42920;45.306;20.448;2023-02-17T15:12:17;30.88;;;17.67;;
57029;SDS011;42920;45.306;20.448;2023-02-17T15:14:45;30.02;;;17.25;;
57029;SDS011;42920;45.306;20.448;2023-02-17T15:17:12;37.45;;;20.75;;
57029;SDS011;42920;45.306;20.448;2023-02-17T15:19:38;43.88;;;23.35;;
57029;SDS011;42920;45.306;20.448;2023-02-17T15:22:04;35.78;;;19.80;;
57029;SDS011;42920;45.306;20.448;2023-02-17T15:24:32;34.92;;;18.92;;
57029;SDS011;42920;45.306;20.448;2023-02-17T15:26:59;31.25;;;18.40;;
57029;SDS011;42920;45.306;20.448;2023-02-17T15:29:27;32.05;;;17.08;;
57029;SDS011;42920;45.306;20.448;2023-02-17T15:31:54;34.90;;;16.55;;
57029;SDS011;42920;45.306;20.448;2023-02-17T15:34:24;32.20;;;17.20;;
57029;SDS011;42920;45.306;20.448;2023-02-17T15:36:55;38.53;;;21.70;;
57029;SDS011;42920;45.306;20.448;2023-02-17T15:39:21;34.38;;;20.50;;
57029;SDS011;42920;45.306;20.448;2023-02-17T15:41:47;43.63;;;25.35;;
57029;SDS011;42920;45.306;20.448;2023-02-17T15:44:18;54.63;;;23.98;;
57029;SDS011;42920;45.306;20.448;2023-02-17T15:46:47;38.22;;;22.15;;
57029;SDS011;42920;45.306;20.448;2023-02-17T15:49:15;35.30;;;20.13;;
57029;SDS011;42920;45.306;20.448;2023-02-17T15:51:41;39.83;;;21.17;;
57029;SDS011;42920;45.306;20.448;2023-02-17T15:54:07;33.85;;;21.02;;
57029;SDS011;42920;45.306;20.448;2023-02-17T15:56:39;40.25;;;24.10;;
57029;SDS011;42920;45.306;20.448;2023-02-17T15:59:25;38.33;;;23.60;;
57029;SDS011;42920;45.306;20.448;2023-02-17T16:01:52;38.03;;;22.05;;
57029;SDS011;42920;45.306;20.448;2023-02-17T16:04:20;33.90;;;22.35;;
57029;SDS011;42920;45.306;20.448;2023-02-17T16:06:46;86.38;;;40.55;;
57029;SDS011;42920;45.306;20.448;2023-02-17T16:09:11;81.25;;;37.45;;
57029;SDS011;42920;45.306;20.448;2023-02-17T16:11:42;55.60;;;30.55;;
57029;SDS011;42920;45.306;20.448;2023-02-17T16:14:15;60.95;;;37.05;;
57029;SDS011;42920;45.306;20.448;2023-02-17T16:17:10;58.85;;;36.05;;
57029;SDS011;42920;45.306;20.448;2023-02-17T16:19:38;47.58;;;30.13;;
57029;SDS011;42920;45.306;20.448;2023-02-17T16:22:04;50.47;;;29.88;;
57029;SDS011;42920;45.306;20.448;2023-02-17T16:24:30;61.08;;;30.50;;
57029;SDS011;42920;45.306;20.448;2023-02-17T16:26:56;71.43;;;28.17;;
57029;SDS011;42920;45.306;20.448;2023-02-17T16:29:21;51.88;;;29.45;;
57029;SDS011;42920;45.306;20.448;2023-02-17T16:31:47;50.90;;;30.40;;
57029;SDS011;42920;45.306;20.448;2023-02-17T16:34:17;55.05;;;32.55;;
57029;SDS011;42920;45.306;20.448;2023-02-17T16:36:48;62.30;;;31.60;;
57029;SDS011;42920;45.306;20.448;2023-02-17T16:39:15;58.88;;;30.45;;
57029;SDS011;42920;45.306;20.448;2023-02-17T16:41:44;59.13;;;35.17;;
57029;SDS011;42920;45.306;20.448;2023-02-17T16:44:20;93.43;;;46.75;;
57029;SDS011;42920;45.306;20.448;2023-02-17T16:49:25;82.15;;;42.53;;
57029;SDS011;42920;45.306;20.448;2023-02-17T16:52:00;74.57;;;39.15;;
57029;SDS011;42920;45.306;20.448;2023-02-17T16:54:30;67.25;;;38.40;;
57029;SDS011;42920;45.306;20.448;2023-02-17T16:56:56;83.20;;;40.20;;
57029;SDS011;42920;45.306;20.448;2023-02-17T16:59:23;82.38;;;39.25;;
57029;SDS011;42920;45.306;20.448;2023-02-17T17:01:50;82.68;;;41.70;;
57029;SDS011;42920;45.306;20.448;2023-02-17T17:04:18;87.43;;;45.55;;
57029;SDS011;42920;45.306;20.448;2023-02-17T17:06:45;101.60;;;43.78;;
57029;SDS011;42920;45.306;20.448;2023-02-17T17:09:15;83.82;;;39.63;;
57029;SDS011;42920;45.306;20.448;2023-02-17T17:11:42;94.57;;;38.85;;
57029;SDS011;42920;45.306;20.448;2023-02-17T17:14:08;72.90;;;34.78;;
57029;SDS011;42920;45.306;20.448;2023-02-17T17:19:00;70.25;;;34.35;;
57029;SDS011;42920;45.306;20.448;2023-02-17T17:21:27;78.25;;;36.15;;
57029;SDS011;42920;45.306;20.448;2023-02-17T17:23:52;83.43;;;38.58;;
57029;SDS011;42920;45.306;20.448;2023-02-17T17:26:30;78.18;;;44.17;;
57029;SDS011;42920;45.306;20.448;2023-02-17T17:29:10;79.88;;;40.90;;
57029;SDS011;42920;45.306;20.448;2023-02-17T17:31:37;74.20;;;38.60;;
57029;SDS011;42920;45.306;20.448;2023-02-17T17:34:03;77.28;;;41.53;;
57029;SDS011;42920;45.306;20.448;2023-02-17T17:36:31;69.90;;;39.72;;
57029;SDS011;42920;45.306;20.448;2023-02-17T17:39:03;80.93;;;41.15;;
57029;SDS011;42920;45.306;20.448;2023-02-17T17:41:30;83.40;;;41.13;;
57029;SDS011;42920;45.306;20.448;2023-02-17T17:43:57;78.82;;;41.80;;
57029;SDS011;42920;45.306;20.448;2023-02-17T17:46:27;101.93;;;45.60;;
57029;SDS011;42920;45.306;20.448;2023-02-17T17:48:55;108.25;;;47.42;;
57029;SDS011;42920;45.306;20.448;2023-02-17T17:51:26;101.05;;;48.97;;
57029;SDS011;42920;45.306;20.448;2023-02-17T17:53:53;92.20;;;45.90;;
57029;SDS011;42920;45.306;20.448;2023-02-17T17:56:21;115.65;;;48.97;;
57029;SDS011;42920;45.306;20.448;2023-02-17T17:58:49;98.78;;;46.05;;
57029;SDS011;42920;45.306;20.448;2023-02-17T18:01:15;75.40;;;42.90;;
57029;SDS011;42920;45.306;20.448;2023-02-17T18:03:43;92.45;;;43.35;;
57029;SDS011;42920;45.306;20.448;2023-02-17T18:06:12;88.65;;;44.70;;
57029;SDS011;42920;45.306;20.448;2023-02-17T18:08:41;84.03;;;43.92;;
57029;SDS011;42920;45.306;20.448;2023-02-17T18:11:09;91.80;;;44.33;;
57029;SDS011;42920;45.306;20.448;2023-02-17T18:13:36;109.15;;;47.03;;
57029;SDS011;42920;45.306;20.448;2023-02-17T18:16:02;93.13;;;48.53;;
57029;SDS011;42920;45.306;20.448;2023-02-17T18:18:28;95.68;;;48.80;;
57029;SDS011;42920;45.306;20.448;2023-02-17T18:20:55;88.57;;;45.45;;
57029;SDS011;42920;45.306;20.448;2023-02-17T18:23:21;88.60;;;46.17;;
57029;SDS011;42920;45.306;20.448;2023-02-17T18:25:46;93.68;;;46.03;;
57029;SDS011;42920;45.306;20.448;2023-02-17T18:28:12;101.45;;;50.97;;
57029;SDS011;42920;45.306;20.448;2023-02-17T18:30:38;113.53;;;60.63;;
57029;SDS011;42920;45.306;20.448;2023-02-17T18:33:04;93.43;;;50.50;;
57029;SDS011;42920;45.306;20.448;2023-02-17T18:35:32;97.25;;;52.67;;
57029;SDS011;42920;45.306;20.448;2023-02-17T18:37:59;106.20;;;54.83;;
57029;SDS011;42920;45.306;20.448;2023-02-17T18:40:25;117.78;;;61.83;;
57029;SDS011;42920;45.306;20.448;2023-02-17T18:42:53;100.28;;;57.63;;
57029;SDS011;42920;45.306;20.448;2023-02-17T18:45:19;92.82;;;50.60;;
57029;SDS011;42920;45.306;20.448;2023-02-17T18:47:46;60.60;;;36.22;;
57029;SDS011;42920;45.306;20.448;2023-02-17T18:50:12;89.80;;;36.28;;
57029;SDS011;42920;45.306;20.448;2023-02-17T18:52:40;57.40;;;30.23;;
57029;SDS011;42920;45.306;20.448;2023-02-17T18:55:06;57.30;;;28.30;;
57029;SDS011;42920;45.306;20.448;2023-02-17T18:57:33;41.00;;;24.35;;
57029;SDS011;42920;45.306;20.448;2023-02-17T18:59:59;41.63;;;22.05;;
57029;SDS011;42920;45.306;20.448;2023-02-17T19:02:25;38.05;;;22.33;;
57029;SDS011;42920;45.306;20.448;2023-02-17T19:04:51;40.15;;;23.38;;
57029;SDS011;42920;45.306;20.448;2023-02-17T19:07:17;54.28;;;23.45;;
57029;SDS011;42920;45.306;20.448;2023-02-17T19:09:44;36.42;;;22.00;;
57029;SDS011;42920;45.306;20.448;2023-02-17T19:12:09;36.30;;;22.05;;
57029;SDS011;42920;45.306;20.448;2023-02-17T19:14:38;42.13;;;21.70;;
57029;SDS011;42920;45.306;20.448;2023-02-17T19:17:05;31.85;;;19.40;;
57029;SDS011;42920;45.306;20.448;2023-02-17T19:19:34;35.75;;;21.17;;